Time;durP1;ratioP1;P1;durP2;ratioP2;P2;SDS_P1;SDS_P2;PMS_P1;PMS_P2;Temp;Humidity;BMP_temperature;BMP_pressure;BME280_temperature;BME280_humidity;BME280_pressure;Samples;Min_cycle;Max_cycle;Signal;HPM_P1;HPM_P2
2023/08/27 00:01:07;;;;;;;3.65;1.67;;;17.40;98.60;;;;;;5043323;28;20029;-56
2023/08/27 00:03:32;;;;;;;3.90;1.77;;;17.30;98.30;;;;;;5048312;28;20105;-58
2023/08/27 00:05:58;;;;;;;2.88;1.77;;;17.10;98.70;;;;;;5041243;28;20468;-59
2023/08/27 00:08:24;;;;;;;7.53;2.00;;;17.00;99.00;;;;;;5051510;28;20517;-58
2023/08/27 00:10:49;;;;;;;3.08;1.75;;;17.00;98.70;;;;;;5034816;28;20300;-59
2023/08/27 00:13:15;;;;;;;2.00;1.60;;;16.80;99.00;;;;;;5047659;28;20022;-59
2023/08/27 00:15:46;;;;;;;3.25;1.35;;;16.80;99.10;;;;;;5048213;28;20033;-59
2023/08/27 00:18:12;;;;;;;2.05;1.25;;;16.80;99.20;;;;;;5046748;28;20056;-58
2023/08/27 00:20:41;;;;;;;2.25;1.35;;;16.90;99.40;;;;;;5048331;28;20523;-59
2023/08/27 00:23:08;;;;;;;2.33;1.55;;;17.00;99.10;;;;;;5037797;28;20434;-58
2023/08/27 00:25:34;;;;;;;3.78;1.38;;;17.00;99.10;;;;;;5042260;28;20032;-58
2023/08/27 00:28:00;;;;;;;2.95;1.20;;;17.00;99.50;;;;;;5044797;28;20079;-57
2023/08/27 00:30:25;;;;;;;4.68;2.55;;;17.20;99.40;;;;;;5041944;28;20033;-58
2023/08/27 00:32:51;;;;;;;3.25;1.92;;;17.20;98.80;;;;;;5048029;28;20025;-57
2023/08/27 00:35:16;;;;;;;2.78;1.63;;;17.00;98.80;;;;;;5041141;28;20499;-56
2023/08/27 00:37:42;;;;;;;3.65;2.30;;;17.00;99.50;;;;;;5047433;28;20029;-59
2023/08/27 00:40:08;;;;;;;1.83;1.55;;;17.20;99.20;;;;;;5049676;28;20033;-59
2023/08/27 00:42:33;;;;;;;2.75;2.35;;;17.20;99.00;;;;;;5038913;28;20032;-59
2023/08/27 00:44:59;;;;;;;4.38;2.05;;;17.30;98.90;;;;;;5048417;28;20021;-57
2023/08/27 00:47:25;;;;;;;2.45;1.30;;;17.10;99.10;;;;;;5049326;28;20072;-58
2023/08/27 00:49:51;;;;;;;4.07;1.88;;;17.10;99.10;;;;;;5048770;28;20396;-58
2023/08/27 00:52:19;;;;;;;2.55;1.30;;;17.00;99.00;;;;;;5051208;28;20025;-58
2023/08/27 00:54:46;;;;;;;4.80;2.10;;;16.90;99.30;;;;;;5047887;28;20064;-58
2023/08/27 00:57:12;;;;;;;4.40;2.45;;;17.10;99.30;;;;;;5042858;28;20512;-58
2023/08/27 00:59:38;;;;;;;5.28;2.63;;;17.20;99.00;;;;;;5035420;28;20030;-57
2023/08/27 01:02:04;;;;;;;6.47;3.60;;;17.10;99.10;;;;;;5043594;28;20029;-57
2023/08/27 01:04:30;;;;;;;4.63;3.70;;;17.30;99.00;;;;;;5036614;28;20056;-58
2023/08/27 01:07:04;;;;;;;3.53;2.08;;;17.30;98.90;;;;;;5055416;28;20496;-57
2023/08/27 01:09:40;;;;;;;8.23;2.70;;;17.30;99.00;;;;;;5057877;28;20077;-57
2023/08/27 01:12:14;;;;;;;4.68;2.20;;;17.40;98.90;;;;;;5042855;28;20396;-57
2023/08/27 01:14:44;;;;;;;5.20;2.42;;;17.30;98.70;;;;;;5040530;28;20053;-58
2023/08/27 01:17:13;;;;;;;4.30;1.75;;;17.10;98.80;;;;;;5039398;28;20076;-57
2023/08/27 01:19:39;;;;;;;2.10;1.83;;;17.00;99.00;;;;;;5046328;28;20074;-58
2023/08/27 01:22:04;;;;;;;3.83;3.38;;;17.00;99.00;;;;;;5054033;28;20021;-56
2023/08/27 01:24:30;;;;;;;2.13;1.55;;;16.80;99.40;;;;;;5040747;28;20031;-58
2023/08/27 01:27:03;;;;;;;4.13;1.42;;;16.80;99.40;;;;;;5048424;28;20033;-56
2023/08/27 01:29:55;;;;;;;4.07;1.80;;;16.90;99.50;;;;;;5044460;28;20032;-55
2023/08/27 01:32:36;;;;;;;4.05;1.80;;;16.90;99.30;;;;;;5044008;28;20063;-57
2023/08/27 01:35:04;;;;;;;2.50;1.35;;;17.00;99.50;;;;;;5030141;28;20793;-56
2023/08/27 01:37:30;;;;;;;2.00;1.85;;;17.10;99.50;;;;;;5043536;28;20059;-56
2023/08/27 01:40:01;;;;;;;5.28;1.52;;;17.10;99.10;;;;;;5046301;28;20062;-57
2023/08/27 01:42:27;;;;;;;3.85;1.88;;;17.00;99.40;;;;;;5050941;28;20519;-58
2023/08/27 01:44:55;;;;;;;2.60;2.15;;;17.00;99.30;;;;;;5046332;28;20048;-56
2023/08/27 01:47:20;;;;;;;5.55;2.00;;;17.10;99.40;;;;;;5044878;28;20032;-58
2023/08/27 01:49:46;;;;;;;2.85;2.00;;;16.90;99.20;;;;;;5040322;28;20033;-58
2023/08/27 01:52:11;;;;;;;5.20;2.03;;;16.90;99.50;;;;;;5041819;28;20078;-58
2023/08/27 01:54:37;;;;;;;6.47;1.13;;;16.90;99.30;;;;;;5047193;28;20033;-59
2023/08/27 01:57:03;;;;;;;3.70;2.28;;;16.90;99.80;;;;;;5051156;28;20037;-57
2023/08/27 01:59:28;;;;;;;3.08;2.58;;;16.90;99.50;;;;;;5048254;28;20502;-57
2023/08/27 02:01:54;;;;;;;14.85;2.58;;;16.70;99.50;;;;;;5045446;28;20543;-58
2023/08/27 02:04:19;;;;;;;3.20;1.58;;;16.70;99.90;;;;;;5054042;28;20100;-58
2023/08/27 02:06:45;;;;;;;2.20;1.63;;;16.80;99.90;;;;;;5037792;28;20052;-58
2023/08/27 02:09:10;;;;;;;3.67;2.03;;;16.90;99.80;;;;;;5039064;28;20025;-58
2023/08/27 02:11:36;;;;;;;4.07;2.45;;;17.00;99.80;;;;;;5047317;28;20079;-57
2023/08/27 02:14:02;;;;;;;4.63;2.03;;;17.00;99.50;;;;;;5041412;28;20025;-57
2023/08/27 02:16:27;;;;;;;2.00;1.48;;;16.90;99.60;;;;;;5035051;28;20036;-57
2023/08/27 02:18:53;;;;;;;7.38;2.00;;;16.90;99.90;;;;;;5045814;28;20025;-58
2023/08/27 02:21:18;;;;;;;3.67;2.53;;;16.90;99.70;;;;;;5048730;28;20067;-58
2023/08/27 02:23:44;;;;;;;5.00;1.80;;;16.80;99.90;;;;;;5036912;28;20021;-57
2023/08/27 02:26:09;;;;;;;1.77;1.30;;;17.00;99.90;;;;;;5045178;28;20082;-56
2023/08/27 02:28:36;;;;;;;2.17;1.35;;;17.10;99.50;;;;;;5048060;28;20036;-57
2023/08/27 02:31:02;;;;;;;3.75;1.98;;;17.10;99.70;;;;;;5046918;28;20475;-57
2023/08/27 02:33:28;;;;;;;10.45;1.58;;;17.30;99.70;;;;;;5047506;28;20065;-58
2023/08/27 02:35:53;;;;;;;3.92;1.17;;;17.40;99.50;;;;;;5042515;28;20064;-57
2023/08/27 02:38:19;;;;;;;5.60;1.80;;;17.50;99.40;;;;;;5045908;28;20290;-58
2023/08/27 02:40:44;;;;;;;1.52;1.25;;;17.50;99.10;;;;;;5045035;28;20082;-57
2023/08/27 02:43:10;;;;;;;4.68;1.63;;;17.50;99.30;;;;;;5044552;28;20055;-58
2023/08/27 02:45:35;;;;;;;2.33;1.10;;;17.60;99.10;;;;;;5044398;28;20036;-59
2023/08/27 02:48:01;;;;;;;2.15;1.10;;;17.60;99.00;;;;;;5041285;28;20025;-59
2023/08/27 02:50:26;;;;;;;2.42;0.88;;;17.60;99.00;;;;;;5045958;28;20033;-58
2023/08/27 02:52:52;;;;;;;5.28;1.13;;;17.60;99.00;;;;;;5044841;28;20175;-57
2023/08/27 02:55:18;;;;;;;6.55;1.23;;;17.60;99.00;;;;;;5042904;28;20067;-58
2023/08/27 02:57:43;;;;;;;2.67;2.10;;;17.60;99.00;;;;;;5046674;28;20036;-58
2023/08/27 03:00:10;;;;;;;1.50;1.25;;;17.60;98.80;;;;;;5044044;28;20037;-58
2023/08/27 03:02:35;;;;;;;4.18;2.10;;;17.30;98.70;;;;;;5047437;28;20071;-58
2023/08/27 03:05:04;;;;;;;2.50;1.80;;;17.30;99.00;;;;;;5043125;28;20495;-58
2023/08/27 03:07:30;;;;;;;2.22;1.60;;;17.20;99.20;;;;;;5045001;28;20030;-58
2023/08/27 03:09:56;;;;;;;6.10;3.05;;;17.20;99.10;;;;;;5046120;28;20090;-58
2023/08/27 03:12:21;;;;;;;2.22;1.42;;;17.20;99.20;;;;;;5042086;28;20025;-58
2023/08/27 03:14:47;;;;;;;2.75;1.80;;;17.20;99.30;;;;;;5047077;28;20033;-58
2023/08/27 03:17:13;;;;;;;4.55;1.70;;;17.20;99.20;;;;;;5045541;28;20029;-58
2023/08/27 03:19:39;;;;;;;4.18;2.17;;;17.20;99.30;;;;;;5049366;28;20020;-58
2023/08/27 03:22:04;;;;;;;2.47;1.30;;;17.30;99.30;;;;;;5044640;28;20021;-58
2023/08/27 03:24:30;;;;;;;1.55;1.20;;;17.40;99.50;;;;;;5049274;28;20103;-58
2023/08/27 03:26:55;;;;;;;3.42;1.15;;;17.40;99.10;;;;;;5052608;28;20488;-59
2023/08/27 03:29:21;;;;;;;2.85;1.50;;;17.50;99.10;;;;;;5043377;28;20052;-58
2023/08/27 03:31:47;;;;;;;3.33;1.42;;;17.40;99.00;;;;;;5052206;28;20029;-58
2023/08/27 03:34:13;;;;;;;3.25;1.42;;;17.40;99.00;;;;;;5049620;28;20086;-58
2023/08/27 03:36:39;;;;;;;2.28;1.25;;;17.40;98.90;;;;;;5050817;28;20032;-58
2023/08/27 03:39:05;;;;;;;1.30;0.90;;;17.30;99.10;;;;;;5041553;28;20112;-58
2023/08/27 03:41:31;;;;;;;1.70;1.20;;;17.30;99.10;;;;;;5051195;28;20086;-58
2023/08/27 03:43:57;;;;;;;2.60;1.30;;;17.20;98.90;;;;;;5051946;28;20020;-58
2023/08/27 03:46:22;;;;;;;7.25;1.17;;;17.10;99.00;;;;;;5045940;28;20075;-58
2023/08/27 03:48:48;;;;;;;5.97;2.35;;;16.90;99.10;;;;;;5039230;28;20045;-58
2023/08/27 03:51:14;;;;;;;3.75;1.75;;;16.80;99.20;;;;;;5050746;28;20025;-58
2023/08/27 03:53:40;;;;;;;3.03;1.73;;;16.80;99.30;;;;;;5042674;28;20025;-58
2023/08/27 03:56:06;;;;;;;2.10;1.17;;;16.70;99.50;;;;;;5035904;28;20078;-57
2023/08/27 03:58:32;;;;;;;3.50;2.15;;;16.80;99.60;;;;;;5034315;28;20043;-58
2023/08/27 04:00:57;;;;;;;2.92;1.40;;;16.90;99.60;;;;;;5042073;28;20020;-59
2023/08/27 04:03:23;;;;;;;2.13;1.30;;;17.00;99.50;;;;;;5049475;28;20036;-57
2023/08/27 04:05:49;;;;;;;4.35;1.70;;;17.00;99.40;;;;;;5046481;28;20053;-58
2023/08/27 04:08:18;;;;;;;2.92;1.27;;;17.00;99.60;;;;;;5046215;28;20025;-58
2023/08/27 04:10:51;;;;;;;2.38;1.42;;;17.00;99.40;;;;;;5037517;28;20035;-58
2023/08/27 04:13:18;;;;;;;2.78;1.40;;;16.90;99.50;;;;;;5049047;28;20052;-57
2023/08/27 04:15:45;;;;;;;3.00;1.33;;;17.00;99.60;;;;;;5054925;28;20033;-58
2023/08/27 04:18:11;;;;;;;5.05;1.70;;;17.00;99.50;;;;;;5046386;28;20025;-57
2023/08/27 04:20:36;;;;;;;3.20;1.65;;;16.90;99.70;;;;;;5049585;28;20024;-58
2023/08/27 04:23:02;;;;;;;4.03;1.30;;;16.90;99.50;;;;;;5041871;28;20029;-57
2023/08/27 04:25:29;;;;;;;1.80;1.42;;;16.90;99.80;;;;;;5047361;28;20391;-58
2023/08/27 04:27:56;;;;;;;6.50;1.48;;;17.00;99.90;;;;;;5046990;28;20028;-58
2023/08/27 04:30:22;;;;;;;1.30;1.10;;;17.10;99.90;;;;;;5049469;28;20021;-58
2023/08/27 04:32:47;;;;;;;3.08;1.27;;;17.20;99.80;;;;;;5050074;28;20029;-58
2023/08/27 04:35:14;;;;;;;1.80;1.20;;;17.30;99.60;;;;;;5049684;28;20036;-57
2023/08/27 04:37:39;;;;;;;5.30;1.65;;;17.40;99.50;;;;;;5053633;28;20120;-57
2023/08/27 04:40:06;;;;;;;3.92;1.05;;;17.40;99.60;;;;;;5050267;28;20448;-58
2023/08/27 04:42:31;;;;;;;2.03;1.60;;;17.50;99.40;;;;;;5043732;28;20432;-58
2023/08/27 04:44:57;;;;;;;4.97;1.02;;;17.50;99.20;;;;;;5058409;28;20033;-56
2023/08/27 04:47:22;;;;;;;3.67;1.35;;;17.40;99.40;;;;;;5052687;28;20484;-58
2023/08/27 04:49:48;;;;;;;1.73;0.95;;;17.40;99.40;;;;;;5046859;28;20040;-58
2023/08/27 04:52:14;;;;;;;1.88;0.93;;;17.50;99.50;;;;;;5042041;28;20483;-58
2023/08/27 04:54:40;;;;;;;2.45;1.23;;;17.60;99.50;;;;;;5050706;28;20036;-58
2023/08/27 04:57:06;;;;;;;1.92;1.02;;;17.60;99.30;;;;;;5041030;28;20030;-58
2023/08/27 04:59:31;;;;;;;2.45;1.58;;;17.60;99.30;;;;;;5046778;28;20387;-58
2023/08/27 05:01:59;;;;;;;5.88;1.20;;;17.60;99.10;;;;;;5046478;28;20396;-56
2023/08/27 05:04:28;;;;;;;2.92;1.55;;;17.50;99.30;;;;;;5045223;28;20374;-59
2023/08/27 05:06:54;;;;;;;1.70;1.05;;;17.40;99.30;;;;;;5042462;28;20365;-58
2023/08/27 05:09:19;;;;;;;2.05;1.15;;;17.30;99.50;;;;;;5045388;28;20048;-58
2023/08/27 05:11:48;;;;;;;2.58;1.05;;;17.40;99.70;;;;;;5045580;28;20472;-58
2023/08/27 05:14:14;;;;;;;3.28;1.10;;;17.40;99.60;;;;;;5044129;28;20041;-58
2023/08/27 05:16:39;;;;;;;3.08;0.88;;;17.40;99.40;;;;;;5043545;28;20017;-58
2023/08/27 05:19:05;;;;;;;2.75;1.52;;;17.20;99.50;;;;;;5040999;28;20498;-58
2023/08/27 05:21:30;;;;;;;3.78;1.75;;;17.10;99.50;;;;;;5047344;28;20483;-58
2023/08/27 05:23:56;;;;;;;3.95;1.27;;;17.00;99.90;;;;;;5048592;28;20104;-58
2023/08/27 05:26:22;;;;;;;2.83;1.02;;;17.00;99.90;;;;;;5047487;28;20510;-58
2023/08/27 05:28:47;;;;;;;2.55;0.85;;;17.10;99.90;;;;;;5045999;28;20051;-59
2023/08/27 05:31:16;;;;;;;2.65;1.45;;;17.20;99.90;;;;;;5041184;28;20043;-58
2023/08/27 05:33:42;;;;;;;4.47;1.40;;;17.20;99.90;;;;;;5051272;28;20028;-59
2023/08/27 05:36:07;;;;;;;6.28;1.40;;;17.30;99.90;;;;;;5041094;28;20502;-58
2023/08/27 05:38:33;;;;;;;7.28;2.13;;;17.30;99.90;;;;;;5046110;28;20503;-57
2023/08/27 05:40:58;;;;;;;2.20;0.93;;;17.40;99.90;;;;;;5045932;28;20025;-59
2023/08/27 05:43:24;;;;;;;3.08;1.45;;;17.40;99.80;;;;;;5046392;28;20025;-59
2023/08/27 05:45:50;;;;;;;3.97;1.02;;;17.40;99.70;;;;;;5043639;28;20032;-58
2023/08/27 05:48:15;;;;;;;4.88;1.60;;;17.40;99.80;;;;;;5048571;23;20068;-73
2023/08/27 05:50:41;;;;;;;2.67;1.58;;;17.30;99.90;;;;;;5036885;28;20024;-72
2023/08/27 05:53:06;;;;;;;1.67;1.10;;;17.40;99.80;;;;;;5029970;28;20025;-73
2023/08/27 05:55:33;;;;;;;2.95;1.25;;;17.30;99.80;;;;;;5034172;28;20030;-72
2023/08/27 05:57:59;;;;;;;2.55;1.58;;;17.30;99.70;;;;;;5056129;28;20070;-72
2023/08/27 06:00:25;;;;;;;1.90;1.40;;;17.30;99.80;;;;;;5054323;28;20071;-72
2023/08/27 06:02:50;;;;;;;1.85;1.20;;;17.30;99.80;;;;;;5062275;28;20096;-72
2023/08/27 06:05:16;;;;;;;2.70;1.50;;;17.30;99.80;;;;;;5059189;28;20537;-73
2023/08/27 06:07:41;;;;;;;2.63;1.30;;;17.30;99.90;;;;;;5050926;28;20025;-73
2023/08/27 06:10:08;;;;;;;2.78;1.45;;;17.40;99.80;;;;;;5051354;28;20491;-73
2023/08/27 06:12:33;;;;;;;2.22;1.50;;;17.40;99.90;;;;;;5056222;28;20048;-73
2023/08/27 06:14:59;;;;;;;4.90;1.63;;;17.50;99.90;;;;;;5049900;28;20025;-73
2023/08/27 06:17:24;;;;;;;2.05;1.15;;;17.60;99.80;;;;;;5051996;28;20101;-72
2023/08/27 06:19:50;;;;;;;4.13;1.58;;;17.60;99.80;;;;;;5054205;28;20032;-72
2023/08/27 06:22:16;;;;;;;2.80;1.70;;;17.50;99.80;;;;;;5045471;28;20048;-72
2023/08/27 06:24:42;;;;;;;4.38;1.50;;;17.60;99.80;;;;;;5044789;28;20047;-72
2023/08/27 06:27:07;;;;;;;4.20;1.35;;;17.60;99.90;;;;;;5056494;28;20434;-75
2023/08/27 06:29:33;;;;;;;3.70;2.13;;;17.60;99.90;;;;;;5051921;28;20475;-75
2023/08/27 06:31:59;;;;;;;2.30;1.30;;;17.60;99.90;;;;;;5055333;28;20115;-75
2023/08/27 06:34:24;;;;;;;2.45;1.63;;;17.50;99.80;;;;;;5064461;28;20119;-75
2023/08/27 06:36:50;;;;;;;2.28;1.10;;;17.40;99.90;;;;;;5056938;28;20024;-76
2023/08/27 06:39:16;;;;;;;5.10;1.98;;;17.40;99.90;;;;;;5069424;28;20031;-74
2023/08/27 06:41:41;;;;;;;3.88;1.38;;;17.50;99.90;;;;;;5069214;28;20027;-71
2023/08/27 06:44:07;;;;;;;1.75;1.15;;;17.50;99.90;;;;;;5053718;28;20056;-71
2023/08/27 06:46:32;;;;;;;1.63;1.38;;;17.50;99.90;;;;;;5049528;28;20044;-71
2023/08/27 06:48:58;;;;;;;5.25;1.80;;;17.40;99.90;;;;;;5064141;28;20021;-71
2023/08/27 06:51:24;;;;;;;2.33;1.60;;;17.40;99.90;;;;;;5050719;28;20028;-71
2023/08/27 06:53:49;;;;;;;2.55;1.52;;;17.40;99.90;;;;;;5066972;28;20399;-70
2023/08/27 06:56:15;;;;;;;3.70;1.75;;;17.40;99.90;;;;;;5066599;28;20021;-71
2023/08/27 06:58:40;;;;;;;7.53;2.60;;;17.50;99.90;;;;;;5066439;28;20476;-71
2023/08/27 07:01:06;;;;;;;5.63;4.05;;;17.70;99.90;;;;;;5048785;28;20017;-71
2023/08/27 07:03:32;;;;;;;7.97;4.63;;;17.80;99.90;;;;;;5056442;28;20025;-70
2023/08/27 07:05:57;;;;;;;7.03;5.60;;;18.00;99.90;;;;;;5056115;28;20097;-72
2023/08/27 07:08:23;;;;;;;10.10;4.82;;;18.10;99.90;;;;;;5047141;28;20304;-71
2023/08/27 07:10:49;;;;;;;20.08;11.13;;;18.20;99.90;;;;;;5054132;28;20029;-71
2023/08/27 07:13:14;;;;;;;3.75;2.47;;;18.30;99.90;;;;;;5055474;28;20040;-72
2023/08/27 07:15:40;;;;;;;6.25;3.25;;;18.30;99.90;;;;;;5055370;28;20021;-72
2023/08/27 07:18:05;;;;;;;8.35;3.63;;;18.30;99.90;;;;;;5053704;28;20395;-72
2023/08/27 07:20:32;;;;;;;6.20;3.45;;;18.30;99.90;;;;;;5071031;28;20446;-71
2023/08/27 07:22:58;;;;;;;4.63;3.55;;;18.20;99.80;;;;;;5049919;28;20021;-72
2023/08/27 07:25:24;;;;;;;9.32;4.88;;;18.20;99.90;;;;;;5052445;28;20500;-72
2023/08/27 07:27:49;;;;;;;13.68;7.20;;;18.10;99.80;;;;;;5056271;28;20037;-74
2023/08/27 07:30:15;;;;;;;3.03;2.03;;;18.20;99.90;;;;;;5057792;28;20110;-73
2023/08/27 07:32:41;;;;;;;8.45;5.82;;;18.20;99.90;;;;;;5060611;28;20057;-72
2023/08/27 07:35:06;;;;;;;9.98;5.15;;;18.30;99.80;;;;;;5052044;28;20029;-71
2023/08/27 07:37:32;;;;;;;12.43;8.30;;;18.30;99.80;;;;;;5057190;28;20109;-72
2023/08/27 07:39:58;;;;;;;12.32;9.52;;;18.30;99.80;;;;;;5052744;28;20048;-72
2023/08/27 07:42:23;;;;;;;26.30;16.77;;;18.30;99.80;;;;;;5051709;28;20384;-72
2023/08/27 07:44:49;;;;;;;13.93;9.57;;;18.40;99.80;;;;;;5053489;28;20387;-72
2023/08/27 07:47:15;;;;;;;13.10;4.68;;;18.50;99.80;;;;;;5050728;28;20395;-72
2023/08/27 07:49:40;;;;;;;228.45;176.80;;;18.60;99.80;;;;;;5050969;28;20488;-72
2023/08/27 07:52:05;;;;;;;52.58;38.15;;;18.60;99.90;;;;;;5052111;28;20477;-72
2023/08/27 07:54:31;;;;;;;26.27;21.70;;;18.60;99.80;;;;;;5050118;28;20031;-72
2023/08/27 07:56:56;;;;;;;13.55;7.28;;;18.70;99.90;;;;;;5049845;28;20104;-72
2023/08/27 07:59:22;;;;;;;5.70;4.25;;;18.80;99.50;;;;;;5049884;28;20035;-72
2023/08/27 08:01:48;;;;;;;11.88;5.70;;;18.80;99.50;;;;;;5050308;28;20028;-72
2023/08/27 08:04:13;;;;;;;6.13;3.75;;;18.80;99.50;;;;;;5052764;28;20052;-72
2023/08/27 08:06:39;;;;;;;4.20;2.78;;;18.90;99.60;;;;;;5056515;28;20053;-72
2023/08/27 08:09:04;;;;;;;6.18;3.20;;;18.80;99.60;;;;;;5051442;28;20032;-72
2023/08/27 08:11:30;;;;;;;6.18;3.35;;;18.80;99.60;;;;;;5051771;28;20376;-72
2023/08/27 08:13:55;;;;;;;5.05;1.90;;;18.80;99.70;;;;;;5049661;28;20033;-73
2023/08/27 08:16:23;;;;;;;20.73;15.75;;;18.90;99.80;;;;;;5050093;28;20032;-72
2023/08/27 08:18:48;;;;;;;290.50;236.27;;;18.80;99.80;;;;;;5050786;28;20062;-74
2023/08/27 08:21:14;;;;;;;19.52;15.32;;;18.90;99.90;;;;;;5046337;28;20451;-72
2023/08/27 08:23:40;;;;;;;6.07;4.22;;;19.00;99.80;;;;;;5052866;28;20043;-72
2023/08/27 08:26:06;;;;;;;2.17;1.70;;;19.10;99.80;;;;;;5056579;28;20021;-72
2023/08/27 08:28:32;;;;;;;5.28;2.20;;;19.20;99.80;;;;;;5055528;28;20028;-72
2023/08/27 08:30:57;;;;;;;3.47;1.50;;;19.20;99.70;;;;;;5055714;28;20032;-72
2023/08/27 08:33:23;;;;;;;1.85;1.60;;;19.30;99.60;;;;;;5055121;28;20062;-72
2023/08/27 08:35:49;;;;;;;5.70;2.03;;;19.30;99.60;;;;;;5051470;28;20079;-72
2023/08/27 08:38:14;;;;;;;2.65;1.40;;;19.30;99.60;;;;;;5050087;28;20047;-72
2023/08/27 08:40:55;;;;;;;5.85;1.58;;;19.40;99.50;;;;;;5047212;28;20249;-72
2023/08/27 08:43:35;;;;;;;4.07;1.73;;;19.40;99.50;;;;;;5045677;28;20025;-72
2023/08/27 08:46:05;;;;;;;474.70;415.58;;;19.40;99.50;;;;;;5049594;28;20024;-72
2023/08/27 08:48:38;;;;;;;47.88;39.63;;;19.40;99.60;;;;;;5012549;28;1032792;-73
2023/08/27 08:51:05;;;;;;;5.10;3.03;;;19.50;99.60;;;;;;5053738;28;20032;-75
2023/08/27 08:53:33;;;;;;;4.72;2.05;;;19.50;99.50;;;;;;5055927;28;20028;-73
2023/08/27 08:56:02;;;;;;;4.47;1.73;;;19.50;99.50;;;;;;5054372;28;20442;-73
2023/08/27 08:58:35;;;;;;;5.20;2.00;;;19.50;99.40;;;;;;5051656;28;20437;-72
2023/08/27 09:01:03;;;;;;;2.38;1.90;;;19.60;99.60;;;;;;5053058;28;20028;-73
2023/08/27 09:03:30;;;;;;;6.80;2.63;;;19.60;99.50;;;;;;5051771;28;20048;-73
2023/08/27 09:05:56;;;;;;;4.43;1.73;;;19.70;99.60;;;;;;5054378;28;20052;-73
2023/08/27 09:08:22;;;;;;;978.42;752.53;;;19.80;99.60;;;;;;5048959;28;20059;-74
2023/08/27 09:10:49;;;;;;;34.38;26.92;;;19.90;99.70;;;;;;5056102;28;20032;-73
2023/08/27 09:13:20;;;;;;;12.00;8.25;;;20.10;99.60;;;;;;5049497;28;20115;-73
2023/08/27 09:15:49;;;;;;;4.72;2.30;;;20.30;99.50;;;;;;5045204;28;20032;-73
2023/08/27 09:18:15;;;;;;;7.25;2.60;;;20.50;99.20;;;;;;5049078;28;20116;-73
2023/08/27 09:20:42;;;;;;;4.75;2.20;;;20.60;99.10;;;;;;5053963;28;20412;-72
2023/08/27 09:23:09;;;;;;;20.55;16.88;;;20.70;99.00;;;;;;5067944;28;20395;-72
2023/08/27 09:25:41;;;;;;;4.22;2.45;;;20.90;98.90;;;;;;5053817;28;20095;-73
2023/08/27 09:28:07;;;;;;;3.15;2.13;;;21.00;98.70;;;;;;5053926;28;20112;-74
2023/08/27 09:30:33;;;;;;;4.50;2.15;;;21.10;98.40;;;;;;5049160;28;20112;-73
2023/08/27 09:32:59;;;;;;;2.42;2.17;;;21.20;98.30;;;;;;5055614;28;20028;-73
2023/08/27 09:35:39;;;;;;;6.05;2.70;;;21.40;98.30;;;;;;5047903;28;20039;-73
2023/08/27 09:38:05;;;;;;;9.20;2.53;;;21.50;98.00;;;;;;5047550;28;20021;-74
2023/08/27 09:40:31;;;;;;;3.78;2.10;;;21.60;97.80;;;;;;5051537;28;20025;-74
2023/08/27 09:43:26;;;;;;;2.75;1.85;;;21.70;97.60;;;;;;5052849;28;20033;-74
2023/08/27 09:45:51;;;;;;;3.03;2.15;;;21.80;97.50;;;;;;5057231;28;20070;-74
2023/08/27 09:48:23;;;;;;;5.85;2.65;;;21.80;97.00;;;;;;5053960;28;20033;-74
2023/08/27 09:50:49;;;;;;;4.75;1.75;;;21.80;97.00;;;;;;5059855;28;20120;-74
2023/08/27 09:53:16;;;;;;;3.58;2.22;;;21.80;97.10;;;;;;5051232;28;20108;-74
2023/08/27 09:55:42;;;;;;;4.32;2.03;;;21.80;96.80;;;;;;5049769;28;20032;-74
2023/08/27 09:58:09;;;;;;;6.25;2.70;;;21.80;97.00;;;;;;5062916;28;20103;-74
2023/08/27 10:00:36;;;;;;;8.15;3.08;;;21.90;96.70;;;;;;5052213;28;20024;-74
2023/08/27 10:03:02;;;;;;;3.30;2.40;;;22.00;96.80;;;;;;5050974;28;20017;-74
2023/08/27 10:05:32;;;;;;;4.70;3.60;;;22.20;96.70;;;;;;5050837;28;20442;-74
2023/08/27 10:07:59;;;;;;;4.55;2.33;;;22.40;96.70;;;;;;5051112;28;20017;-74
2023/08/27 10:10:25;;;;;;;3.88;1.42;;;22.60;96.50;;;;;;5052124;28;20471;-74
2023/08/27 10:12:52;;;;;;;3.30;1.80;;;22.70;96.00;;;;;;5057434;28;20033;-74
2023/08/27 10:15:19;;;;;;;4.75;1.55;;;22.80;96.10;;;;;;5062804;28;20036;-74
2023/08/27 10:17:45;;;;;;;5.65;1.95;;;22.90;95.60;;;;;;5054110;28;20049;-74
2023/08/27 10:20:11;;;;;;;3.38;1.63;;;23.00;95.30;;;;;;5050579;28;20373;-74
2023/08/27 10:22:37;;;;;;;3.15;1.42;;;23.10;94.80;;;;;;5053454;28;20047;-74
2023/08/27 10:25:06;;;;;;;1.42;1.00;;;23.10;94.80;;;;;;5070940;28;20020;-74
2023/08/27 10:27:32;;;;;;;7.00;1.48;;;23.00;94.30;;;;;;5060092;28;20029;-74
2023/08/27 10:30:00;;;;;;;3.72;2.00;;;23.10;94.70;;;;;;5058085;28;20115;-74
2023/08/27 10:32:25;;;;;;;3.80;1.35;;;23.20;94.60;;;;;;5064601;28;20021;-74
2023/08/27 10:34:52;;;;;;;4.80;0.80;;;23.20;94.20;;;;;;5067573;28;20039;-74
2023/08/27 10:37:20;;;;;;;4.93;1.52;;;23.30;94.30;;;;;;5067120;28;20165;-74
2023/08/27 10:39:48;;;;;;;13.30;1.95;;;23.50;93.90;;;;;;5047093;28;20063;-74
2023/08/27 10:42:33;;;;;;;2.63;1.05;;;23.60;93.60;;;;;;5054770;28;20102;-74
2023/08/27 10:45:20;;;;;;;1.20;1.10;;;23.60;93.10;;;;;;5054696;28;20104;-75
2023/08/27 10:48:06;;;;;;;2.42;1.35;;;23.50;93.10;;;;;;5056953;28;20406;-74
2023/08/27 10:50:47;;;;;;;3.63;1.33;;;23.50;93.10;;;;;;5055291;28;20033;-75
2023/08/27 10:53:14;;;;;;;3.50;1.15;;;23.50;93.00;;;;;;5061267;28;20569;-71
2023/08/27 10:55:43;;;;;;;5.82;1.67;;;23.50;93.20;;;;;;5058743;28;20028;-73
2023/08/27 10:58:16;;;;;;;1.85;1.40;;;23.50;93.20;;;;;;5064120;28;20021;-73
2023/08/27 11:01:02;;;;;;;7.15;1.73;;;23.70;93.20;;;;;;5053611;28;20029;-73
2023/08/27 11:03:48;;;;;;;3.58;1.73;;;23.80;93.60;;;;;;5057344;28;20040;-72
2023/08/27 11:06:14;;;;;;;6.07;1.60;;;23.70;93.10;;;;;;5050263;28;20037;-71
2023/08/27 11:08:42;;;;;;;2.35;1.50;;;23.80;93.00;;;;;;5055968;28;20624;-71
2023/08/27 11:11:12;;;;;;;2.40;1.45;;;23.80;92.20;;;;;;5062551;28;20438;-71
2023/08/27 11:13:41;;;;;;;3.35;1.30;;;23.80;92.30;;;;;;5061574;28;20021;-72
2023/08/27 11:16:14;;;;;;;1.60;0.90;;;23.90;92.60;;;;;;5066175;28;20031;-72
2023/08/27 11:18:50;;;;;;;2.42;1.10;;;24.10;91.90;;;;;;5052145;28;20063;-72
2023/08/27 11:21:38;;;;;;;3.30;1.30;;;24.20;91.50;;;;;;5061820;28;20498;-72
2023/08/27 11:24:17;;;;;;;3.90;1.50;;;24.20;92.00;;;;;;5058341;28;20040;-72
2023/08/27 11:26:45;;;;;;;1.60;1.40;;;24.10;92.00;;;;;;5058778;28;20491;-72
2023/08/27 11:29:11;;;;;;;5.07;2.45;;;24.00;92.20;;;;;;5067659;28;20029;-72
2023/08/27 11:31:45;;;;;;;3.92;1.20;;;24.10;92.30;;;;;;5054983;28;20111;-72
2023/08/27 11:34:13;;;;;;;2.28;1.40;;;24.20;92.20;;;;;;5060039;28;20029;-72
2023/08/27 11:36:41;;;;;;;3.10;1.55;;;24.20;92.00;;;;;;5064121;28;20123;-72
2023/08/27 11:39:12;;;;;;;2.75;1.25;;;24.30;91.70;;;;;;5054936;28;20041;-72
2023/08/27 11:41:40;;;;;;;3.10;1.50;;;24.40;91.60;;;;;;5053881;28;20017;-72
2023/08/27 11:44:08;;;;;;;4.95;1.40;;;24.50;91.80;;;;;;5060572;28;20021;-72
2023/08/27 11:46:34;;;;;;;1.30;0.70;;;24.60;91.50;;;;;;5058904;28;20060;-72
2023/08/27 11:49:00;;;;;;;2.80;0.68;;;24.60;91.20;;;;;;5066638;28;20058;-73
2023/08/27 11:51:26;;;;;;;6.05;0.90;;;24.70;90.20;;;;;;5044130;28;20175;-73
2023/08/27 11:53:52;;;;;;;1.45;0.90;;;24.80;89.00;;;;;;5049570;28;20029;-74
2023/08/27 11:56:18;;;;;;;3.72;0.82;;;24.90;87.50;;;;;;5054367;28;20033;-74
2023/08/27 11:58:54;;;;;;;2.40;0.80;;;25.00;88.10;;;;;;5053378;28;20444;-75
2023/08/27 12:01:20;;;;;;;1.75;1.02;;;25.10;87.10;;;;;;5056592;28;20508;-74
2023/08/27 12:03:48;;;;;;;2.60;0.77;;;25.20;84.20;;;;;;5061210;28;20116;-75
2023/08/27 12:06:24;;;;;;;1.48;0.80;;;25.20;84.40;;;;;;5058792;28;20037;-75
2023/08/27 12:08:51;;;;;;;1.98;0.80;;;25.20;83.40;;;;;;5067132;28;20032;-75
2023/08/27 12:11:18;;;;;;;1.88;1.02;;;25.10;83.00;;;;;;5052265;28;20087;-75
2023/08/27 12:13:53;;;;;;;1.67;1.02;;;25.20;83.40;;;;;;5054550;28;20059;-75
2023/08/27 12:16:34;;;;;;;1.35;0.50;;;25.30;83.10;;;;;;5064000;28;20479;-75
2023/08/27 12:19:05;;;;;;;0.60;0.30;;;25.30;80.10;;;;;;5073280;28;20045;-75
2023/08/27 12:21:45;;;;;;;3.20;0.40;;;24.90;80.30;;;;;;5073438;28;20021;-75
2023/08/27 12:24:31;;;;;;;2.30;0.30;;;24.30;82.10;;;;;;5067053;28;20609;-75
2023/08/27 12:27:06;;;;;;;1.88;0.30;;;23.60;83.90;;;;;;5053145;28;20036;-75
2023/08/27 12:29:40;;;;;;;0.75;0.45;;;23.20;85.90;;;;;;5052700;28;20033;-75
2023/08/27 12:32:09;;;;;;;1.13;0.30;;;22.50;87.80;;;;;;5059877;28;20032;-76
2023/08/27 12:34:36;;;;;;;1.95;0.70;;;22.20;89.90;;;;;;5061116;28;20040;-76
2023/08/27 12:37:03;;;;;;;1.98;0.30;;;21.80;90.80;;;;;;5055819;28;20072;-76
2023/08/27 12:39:29;;;;;;;0.85;0.47;;;21.50;91.60;;;;;;5061890;28;20032;-75
2023/08/27 12:41:54;;;;;;;1.08;0.35;;;21.20;92.20;;;;;;5064329;28;20066;-76
2023/08/27 12:44:20;;;;;;;1.85;0.63;;;21.00;92.80;;;;;;5063495;28;20016;-75
2023/08/27 12:46:45;;;;;;;0.60;0.38;;;20.90;92.90;;;;;;5052546;28;20132;-76